Monroe City, Texas
Current Conditions -  °F | °C
As of 12:35 PM on Wednesday 26 Nov 2014 (Local Time) from KBMT Reporting Station
Clear Clear  
Wind Chill: 68°   Ceiling: Unl
Heat Index: 68°   Visibility: 10mi
Dew Point: 39°   Wind: 15mph
Humidity: 34%   Direction: 240°WSW
Pressure: 30.2"   Gusts: 18mph
Location:  29.7107°N, 94.5434°W
Report Text: KBMT 261835Z AUTO 24013G16KT 10SM CLR 20/04 A3020 RMK AO2 T02020039
Loading
Personal Weather Stations






























Interactive Weather Map New forecast layout! Learn more

10-Day Weather Forecast

Advertisements
Track Severe Weather on mobile